Clio, SC (29525)

11:16 PM EDT on August 24, 2016 (GMT -0400)
bennettsville | | Change Station

Elev 203 ft 34.62 °N, 79.67 °W | Updated 9 seconds ago

Clear
Clear
73.0 °F
Feels Like 74 °F
N
0.0
Wind Variable Wind from SSW

Today
High -- | Low -- °F
--% Chance of Precip.
Yesterday
High -- | Low -- °F
Precip. -- in
Pressure 30.21 in
Visibility 10.0 miles
Clouds Clear
Heat Index 74 °F
Dew Point 66 °F
Humidity 78%
Rainfall 0.72 in
Snow Depth Not available.
6:45 AM 7:54 PM
Waning Gibbous, 50% visible
METAR KBBP 250255Z AUTO 00000KT 10SM CLR 21/19 A3021 RMK AO2
Pressure 30.21 in
Visibility 10.0 miles
Clouds Clear
Heat Index 74 °F
Dew Point 66 °F
Humidity 78%
Rainfall 0.72 in
Snow Depth Not available.
6:45 AM 7:54 PM
Waning Gibbous, 50% visible
METAR KBBP 250255Z AUTO 00000KT 10SM CLR 21/19 A3021 RMK AO2

10-Day Weather Forecast

Almanac

Astronomy

Aug. 24, 2016 Rise Set
Actual Time
Civil Twilight
Nautical Twilight
Astronomical Twilight
Moon
Length of Visible Light
Length of Day
Tomorrow will be .
, % of the Moon is Illuminated

Today's Extremes

State Highs State Lows

Community

WunderPhotos

Upload Photos

1,934,787 photos uploaded!

WunderBlog® & News

Nearby

Air Quality

  Air Quality AQ Index Pollutant
Not available.

Snow Depth

Station Depth Elevation

Earthquake Activity

City Distance Mag. Time & Date
Minimum magnitude displayed is 2.5.

Coastal Water Temperatures

Place Temperature

Stations

Nearby Weather Stations

Station Location Temp. Windchill Dew Point Humidity Wind Precip. Elev Updated Type
                   

Watches & Warnings

There are currently no watches in effect.